Time;durP1;ratioP1;P1;durP2;ratioP2;P2;SDS_P1;SDS_P2;PMS_P1;PMS_P2;Temp;Humidity;BMP_temperature;BMP_pressure;BME280_temperature;BME280_humidity;BME280_pressure;Samples;Min_cycle;Max_cycle;Signal;HPM_P1;HPM_P2
2022/08/16 00:01:11;;;;;;;18.05;13.20;;;21.50;72.90;;;;;;6159083;23;20005;-78
2022/08/16 00:03:36;;;;;;;16.33;12.88;;;21.50;72.40;;;;;;6158829;23;20009;-78
2022/08/16 00:06:02;;;;;;;17.02;12.50;;;21.40;73.10;;;;;;6159349;23;20609;-78
2022/08/16 00:08:28;;;;;;;20.77;14.35;;;21.30;73.40;;;;;;6158455;23;20120;-79
2022/08/16 00:10:54;;;;;;;21.02;13.48;;;21.30;73.50;;;;;;6158516;23;20002;-78
2022/08/16 00:13:19;;;;;;;16.27;13.23;;;21.30;73.40;;;;;;6159152;23;20535;-78
2022/08/16 00:15:47;;;;;;;22.67;13.23;;;21.30;73.50;;;;;;6159327;23;20001;-78
2022/08/16 00:18:16;;;;;;;17.75;13.95;;;21.30;73.60;;;;;;6159554;23;20267;-78
2022/08/16 00:20:45;;;;;;;21.27;14.23;;;21.20;73.90;;;;;;6158871;23;20002;-78
2022/08/16 00:23:11;;;;;;;18.30;13.60;;;21.10;74.10;;;;;;6157796;23;20008;-78
2022/08/16 00:25:37;;;;;;;18.08;13.75;;;21.00;74.60;;;;;;6158941;23;20002;-78
2022/08/16 00:28:04;;;;;;;16.80;12.85;;;21.00;74.50;;;;;;6158601;23;20040;-79
2022/08/16 00:30:31;;;;;;;18.65;13.23;;;21.10;74.40;;;;;;6156361;23;20453;-78
2022/08/16 00:32:58;;;;;;;21.00;14.07;;;21.00;74.40;;;;;;6158744;23;20012;-78
2022/08/16 00:35:38;;;;;;;21.33;13.38;;;21.10;74.50;;;;;;6158437;23;20005;-79
2022/08/16 00:38:05;;;;;;;19.27;13.68;;;21.20;74.00;;;;;;6159088;23;20053;-78
2022/08/16 00:40:38;;;;;;;17.95;12.52;;;21.20;73.90;;;;;;6158508;23;20005;-78
2022/08/16 00:43:08;;;;;;;19.05;13.35;;;21.20;73.80;;;;;;6158523;23;20499;-78
2022/08/16 00:45:34;;;;;;;19.42;13.05;;;21.10;74.10;;;;;;6157122;23;20009;-78
2022/08/16 00:48:04;;;;;;;20.05;13.07;;;21.10;74.10;;;;;;6158775;23;20001;-79
2022/08/16 00:50:37;;;;;;;17.38;13.13;;;20.90;74.90;;;;;;6158034;23;20002;-78
2022/08/16 00:53:08;;;;;;;22.88;14.85;;;20.80;75.50;;;;;;6158856;23;20010;-78
2022/08/16 00:55:37;;;;;;;19.08;13.75;;;20.90;74.90;;;;;;6158746;23;20381;-78
2022/08/16 00:58:03;;;;;;;21.23;14.25;;;21.00;74.80;;;;;;6158503;23;20012;-78
2022/08/16 01:00:31;;;;;;;18.15;13.63;;;21.00;74.30;;;;;;6158571;23;20002;-79
2022/08/16 01:02:59;;;;;;;20.13;13.90;;;20.90;75.00;;;;;;6158243;23;20008;-78
2022/08/16 01:05:26;;;;;;;20.23;15.13;;;20.90;75.10;;;;;;6158719;23;19997;-78
2022/08/16 01:07:52;;;;;;;18.67;13.93;;;20.80;75.20;;;;;;6158071;23;20039;-78
2022/08/16 01:10:23;;;;;;;21.25;14.15;;;20.80;75.40;;;;;;6157995;23;20005;-78
2022/08/16 01:12:49;;;;;;;22.60;14.48;;;20.80;75.50;;;;;;6158513;23;19997;-78
2022/08/16 01:15:16;;;;;;;21.33;14.88;;;20.80;75.60;;;;;;6158179;23;19998;-76
2022/08/16 01:17:43;;;;;;;22.92;15.38;;;20.80;75.70;;;;;;6158048;23;20005;-77
2022/08/16 01:20:11;;;;;;;21.52;14.82;;;20.80;75.80;;;;;;6158430;23;20013;-77
2022/08/16 01:22:56;;;;;;;22.60;15.88;;;20.80;75.90;;;;;;6156885;23;20005;-77
2022/08/16 01:25:34;;;;;;;23.90;16.58;;;20.80;75.50;;;;;;6157944;23;20008;-77
2022/08/16 01:28:02;;;;;;;24.73;16.58;;;20.80;75.10;;;;;;6158252;23;20009;-77
2022/08/16 01:30:35;;;;;;;21.80;16.45;;;20.80;75.70;;;;;;6158492;23;20002;-77
2022/08/16 01:33:08;;;;;;;23.10;15.90;;;20.80;75.80;;;;;;6158267;23;19998;-77
2022/08/16 01:35:43;;;;;;;21.80;16.33;;;20.80;76.00;;;;;;6157782;23;20002;-77
2022/08/16 01:38:32;;;;;;;25.13;16.40;;;20.80;75.80;;;;;;6158674;23;20006;-77
2022/08/16 01:41:04;;;;;;;24.67;16.80;;;20.80;75.90;;;;;;6158129;23;19998;-77
2022/08/16 01:43:31;;;;;;;23.38;16.98;;;20.80;76.10;;;;;;6158131;23;20004;-77
2022/08/16 01:46:00;;;;;;;25.55;17.55;;;20.70;76.30;;;;;;6157033;23;20006;-77
2022/08/16 01:48:28;;;;;;;22.85;17.02;;;20.70;76.30;;;;;;6156762;23;20005;-77
2022/08/16 01:50:55;;;;;;;25.48;16.40;;;20.80;76.10;;;;;;6158150;23;19997;-77
2022/08/16 01:53:21;;;;;;;25.35;17.08;;;20.80;76.20;;;;;;6157751;23;20009;-77
2022/08/16 01:55:47;;;;;;;27.20;17.77;;;20.80;75.90;;;;;;6158114;23;20125;-77
2022/08/16 01:58:15;;;;;;;27.50;17.77;;;20.80;76.20;;;;;;6158509;23;20036;-77
2022/08/16 02:00:41;;;;;;;25.83;17.85;;;20.80;76.00;;;;;;6157975;23;20103;-77
2022/08/16 02:03:07;;;;;;;25.08;17.52;;;20.80;76.00;;;;;;6157965;23;20068;-78
2022/08/16 02:05:33;;;;;;;30.27;19.55;;;20.80;76.30;;;;;;6158643;23;20005;-77
2022/08/16 02:07:59;;;;;;;24.00;17.35;;;20.80;76.40;;;;;;6157873;23;20369;-77
2022/08/16 02:10:25;;;;;;;29.00;19.50;;;20.80;76.10;;;;;;6156408;23;20017;-77
2022/08/16 02:12:52;;;;;;;29.75;18.33;;;20.80;76.10;;;;;;6156162;23;20061;-77
2022/08/16 02:15:24;;;;;;;24.52;17.10;;;20.80;76.30;;;;;;6157889;23;20073;-77
2022/08/16 02:17:50;;;;;;;27.60;16.77;;;20.80;76.50;;;;;;6157051;23;20075;-77
2022/08/16 02:20:18;;;;;;;26.60;18.38;;;20.80;77.00;;;;;;6157670;23;20006;-76
2022/08/16 02:22:44;;;;;;;32.83;19.25;;;20.80;77.00;;;;;;6158048;23;20037;-77
2022/08/16 02:25:13;;;;;;;25.17;17.52;;;20.80;76.40;;;;;;6157858;23;20076;-77
2022/08/16 02:27:41;;;;;;;28.95;18.30;;;20.70;77.00;;;;;;6158141;23;20439;-77
2022/08/16 02:30:13;;;;;;;25.13;18.35;;;20.70;76.90;;;;;;6158062;23;20008;-77
2022/08/16 02:32:40;;;;;;;27.02;18.30;;;20.70;76.80;;;;;;6157721;23;20006;-77
2022/08/16 02:35:19;;;;;;;;;;;;;;;;;;;;;
2022/08/16 02:37:45;;;;;;;28.13;18.53;;;20.80;76.70;;;;;;6158325;23;20097;-77
2022/08/16 02:40:15;;;;;;;30.35;18.70;;;20.80;76.50;;;;;;6157757;23;20001;-77
2022/08/16 02:42:45;;;;;;;30.65;18.40;;;20.80;76.50;;;;;;6158167;23;20105;-77
2022/08/16 02:45:11;;;;;;;27.20;18.05;;;20.80;76.60;;;;;;6158150;23;20005;-78
2022/08/16 02:47:37;;;;;;;32.22;19.40;;;20.80;76.90;;;;;;6158039;23;20052;-77
2022/08/16 02:50:04;;;;;;;31.45;19.73;;;20.70;76.70;;;;;;6157663;23;20089;-77
2022/08/16 02:52:32;;;;;;;30.65;19.55;;;20.70;76.40;;;;;;6158025;23;20995;-76
2022/08/16 02:54:58;;;;;;;30.73;19.70;;;20.80;76.30;;;;;;6156736;23;20005;-76
2022/08/16 02:57:24;;;;;;;27.25;18.45;;;20.70;77.20;;;;;;6158063;23;20006;-76
2022/08/16 02:59:49;;;;;;;29.73;18.60;;;20.70;77.20;;;;;;6157679;23;20005;-77
2022/08/16 03:02:16;;;;;;;30.10;18.80;;;20.60;76.90;;;;;;6159608;23;20445;-77
2022/08/16 03:04:42;;;;;;;30.63;19.63;;;20.70;77.30;;;;;;6159483;23;20005;-77
2022/08/16 03:07:09;;;;;;;34.13;19.52;;;20.70;77.60;;;;;;6158147;23;20018;-76
2022/08/16 03:09:40;;;;;;;28.95;18.65;;;20.70;77.40;;;;;;6159291;23;20005;-76
2022/08/16 03:12:06;;;;;;;30.23;20.40;;;20.70;77.50;;;;;;6159757;23;20346;-76
2022/08/16 03:14:34;;;;;;;29.05;18.80;;;20.70;77.30;;;;;;6159821;23;20481;-77
2022/08/16 03:17:00;;;;;;;27.20;19.20;;;20.60;77.80;;;;;;6157920;23;20009;-77
2022/08/16 03:19:28;;;;;;;25.70;18.40;;;20.60;77.80;;;;;;6159982;23;20029;-77
2022/08/16 03:21:54;;;;;;;29.67;19.88;;;20.60;77.80;;;;;;6159661;23;20466;-77
2022/08/16 03:24:20;;;;;;;26.05;18.20;;;20.60;77.90;;;;;;6159318;23;20005;-77
2022/08/16 03:26:45;;;;;;;29.50;20.52;;;20.60;77.50;;;;;;6159638;23;20470;-77
2022/08/16 03:29:11;;;;;;;29.55;19.77;;;20.70;77.50;;;;;;6159228;23;20039;-77
2022/08/16 03:31:37;;;;;;;30.15;19.42;;;20.70;77.40;;;;;;6159468;23;20426;-78
2022/08/16 03:34:03;;;;;;;29.35;19.55;;;20.70;77.50;;;;;;6157743;23;20013;-77
2022/08/16 03:36:28;;;;;;;34.38;20.80;;;20.60;77.50;;;;;;6159464;23;20420;-77
2022/08/16 03:38:54;;;;;;;30.70;20.15;;;20.70;77.60;;;;;;6159132;23;20016;-77
2022/08/16 03:41:21;;;;;;;28.77;19.30;;;20.70;78.00;;;;;;6159550;23;20100;-76
2022/08/16 03:43:46;;;;;;;30.70;19.50;;;20.70;77.80;;;;;;6159036;23;20337;-77
2022/08/16 03:46:12;;;;;;;32.90;21.27;;;20.70;78.00;;;;;;6159285;23;20033;-77
2022/08/16 03:48:38;;;;;;;30.02;19.42;;;20.70;78.30;;;;;;6159436;23;20063;-79
2022/08/16 03:51:08;;;;;;;31.50;20.05;;;20.80;78.00;;;;;;6159515;23;20013;-76
2022/08/16 03:53:34;;;;;;;26.80;18.47;;;20.80;77.80;;;;;;6159156;23;20002;-77
2022/08/16 03:56:00;;;;;;;32.67;19.38;;;20.80;78.00;;;;;;6159362;23;20221;-77
2022/08/16 03:58:25;;;;;;;30.30;20.23;;;20.80;78.10;;;;;;6159328;23;19998;-77
2022/08/16 04:00:54;;;;;;;30.23;20.13;;;20.80;77.90;;;;;;6157619;23;20010;-77
2022/08/16 04:03:19;;;;;;;30.13;19.33;;;20.80;77.80;;;;;;6159300;23;20009;-77
2022/08/16 04:05:47;;;;;;;34.75;19.83;;;20.80;78.00;;;;;;6159213;23;20001;-77
2022/08/16 04:08:13;;;;;;;27.52;18.63;;;20.80;78.00;;;;;;6159194;23;20346;-77
2022/08/16 04:10:40;;;;;;;30.45;19.70;;;20.80;77.90;;;;;;6157305;23;20009;-77
2022/08/16 04:13:06;;;;;;;31.38;19.52;;;20.80;77.50;;;;;;6158938;23;20002;-77
2022/08/16 04:15:32;;;;;;;27.95;19.00;;;20.80;77.50;;;;;;6158813;23;19998;-77
2022/08/16 04:18:00;;;;;;;32.25;20.50;;;20.80;77.60;;;;;;6158929;23;19997;-77
2022/08/16 04:20:27;;;;;;;30.23;20.42;;;20.80;77.60;;;;;;6159081;23;20005;-77
2022/08/16 04:22:53;;;;;;;31.27;20.10;;;20.80;77.60;;;;;;6159209;23;20342;-77
2022/08/16 04:25:19;;;;;;;35.05;19.55;;;20.80;77.90;;;;;;6158768;23;20001;-77
2022/08/16 04:27:44;;;;;;;35.30;20.23;;;20.80;78.00;;;;;;6159031;23;20009;-77
2022/08/16 04:30:13;;;;;;;37.40;21.10;;;20.80;78.20;;;;;;6158905;23;20010;-78
2022/08/16 04:32:40;;;;;;;24.13;17.45;;;20.70;78.60;;;;;;6158435;23;20052;-77
2022/08/16 04:35:08;;;;;;;29.38;18.15;;;20.50;79.10;;;;;;6159000;23;19998;-78
2022/08/16 04:37:34;;;;;;;28.48;19.08;;;20.30;80.00;;;;;;6158478;23;20005;-77
2022/08/16 04:40:00;;;;;;;26.23;19.08;;;20.30;80.10;;;;;;6158899;23;20009;-77
2022/08/16 04:42:26;;;;;;;29.13;19.27;;;20.40;79.90;;;;;;6158511;23;20016;-77
2022/08/16 04:44:54;;;;;;;31.02;19.98;;;20.50;79.80;;;;;;6159484;23;20002;-77
2022/08/16 04:47:20;;;;;;;27.23;20.10;;;20.30;80.20;;;;;;6158709;23;20382;-77
2022/08/16 04:49:46;;;;;;;30.60;19.38;;;20.30;80.50;;;;;;6158367;23;20445;-77
2022/08/16 04:52:12;;;;;;;32.42;19.15;;;20.40;80.30;;;;;;6158458;23;20135;-76
2022/08/16 04:54:39;;;;;;;30.50;19.20;;;20.50;79.90;;;;;;6156338;23;20066;-77
2022/08/16 04:57:05;;;;;;;28.75;18.77;;;20.50;79.80;;;;;;6158652;23;20052;-77
2022/08/16 04:59:31;;;;;;;28.77;18.52;;;20.60;79.60;;;;;;6157800;23;20471;-77
2022/08/16 05:01:56;;;;;;;28.92;18.35;;;20.60;79.40;;;;;;6157324;23;20013;-76
2022/08/16 05:04:22;;;;;;;27.33;18.77;;;20.60;79.40;;;;;;6156936;23;20433;-76
2022/08/16 05:06:49;;;;;;;28.02;18.35;;;20.50;79.50;;;;;;6158076;23;20013;-75
2022/08/16 05:09:15;;;;;;;30.02;18.05;;;20.40;80.10;;;;;;6158361;23;20072;-75
2022/08/16 05:11:41;;;;;;;31.05;19.33;;;20.50;80.10;;;;;;6158089;23;20002;-76
2022/08/16 05:14:06;;;;;;;30.48;18.23;;;20.60;79.80;;;;;;6157200;23;20058;-76
2022/08/16 05:16:32;;;;;;;27.17;19.55;;;20.60;79.70;;;;;;6158420;23;20009;-75
2022/08/16 05:19:01;;;;;;;25.70;18.30;;;20.60;79.80;;;;;;6158268;23;20103;-76
2022/08/16 05:21:27;;;;;;;32.15;19.67;;;20.50;80.10;;;;;;6158366;23;20010;-79
2022/08/16 05:23:54;;;;;;;31.17;18.33;;;20.40;80.10;;;;;;6158024;23;20002;-77
2022/08/16 05:26:20;;;;;;;28.65;16.92;;;20.50;80.40;;;;;;6158352;23;20081;-79
2022/08/16 05:28:49;;;;;;;27.73;17.75;;;20.50;80.00;;;;;;6158413;23;20026;-84
2022/08/16 05:31:15;;;;;;;30.27;18.40;;;20.60;80.20;;;;;;6155738;23;20016;-85
2022/08/16 05:33:41;;;;;;;29.60;17.45;;;20.70;80.00;;;;;;6155544;23;20064;-84
2022/08/16 05:36:07;;;;;;;27.77;17.85;;;20.70;79.60;;;;;;6157839;23;20374;-85
2022/08/16 05:38:33;;;;;;;32.85;16.90;;;20.80;79.30;;;;;;6154836;23;20011;-87
2022/08/16 05:41:00;;;;;;;27.23;17.27;;;20.80;79.50;;;;;;6155271;23;20029;-85
2022/08/16 05:43:27;;;;;;;26.52;16.98;;;20.80;79.60;;;;;;6156148;23;20357;-87
2022/08/16 05:45:54;;;;;;;27.13;17.63;;;20.80;79.60;;;;;;6155459;23;20350;-85
2022/08/16 05:48:20;;;;;;;26.15;17.42;;;20.80;79.40;;;;;;6155595;23;20052;-85
2022/08/16 05:50:46;;;;;;;26.80;16.40;;;20.80;79.40;;;;;;6157557;23;20001;-85
2022/08/16 05:53:38;;;;;;;27.10;17.73;;;20.80;79.50;;;;;;6155443;23;20005;-87
2022/08/16 05:56:04;;;;;;;28.10;15.73;;;20.80;80.10;;;;;;6155556;23;20477;-87
2022/08/16 05:58:30;;;;;;;29.92;17.00;;;20.80;79.60;;;;;;6155773;23;20009;-86
2022/08/16 06:00:56;;;;;;;30.35;16.90;;;20.80;79.90;;;;;;6154958;23;20119;-84
2022/08/16 06:03:21;;;;;;;26.52;16.63;;;20.80;79.70;;;;;;6156952;23;19997;-85
2022/08/16 06:05:47;;;;;;;29.08;17.40;;;20.80;79.90;;;;;;6156826;23;20002;-84
2022/08/16 06:08:12;;;;;;;29.00;17.20;;;20.80;80.00;;;;;;6156759;23;20016;-84
2022/08/16 06:10:38;;;;;;;28.10;17.45;;;20.80;79.90;;;;;;6155609;23;20020;-86
2022/08/16 06:13:04;;;;;;;24.52;16.92;;;20.80;80.10;;;;;;6156762;23;20008;-84
2022/08/16 06:15:29;;;;;;;24.75;17.52;;;20.80;80.30;;;;;;6155774;23;20009;-86
2022/08/16 06:17:55;;;;;;;28.58;16.67;;;20.80;80.10;;;;;;6156153;23;19997;-86
2022/08/16 06:20:24;;;;;;;25.20;16.13;;;20.80;79.90;;;;;;6155843;23;20017;-85
2022/08/16 06:22:55;;;;;;;27.58;17.50;;;20.80;80.10;;;;;;6155966;23;20009;-90
2022/08/16 06:25:21;;;;;;;27.15;16.80;;;20.80;80.40;;;;;;6154856;23;20086;-86
2022/08/16 06:27:47;;;;;;;28.35;17.17;;;20.80;80.70;;;;;;6157014;23;20017;-85
2022/08/16 06:30:13;;;;;;;30.85;17.48;;;20.80;80.80;;;;;;6156859;23;20461;-84
2022/08/16 06:32:39;;;;;;;24.92;17.38;;;20.70;81.20;;;;;;6155688;23;20578;-86
2022/08/16 06:35:05;;;;;;;29.02;17.25;;;20.70;81.10;;;;;;6158476;23;19997;-85
2022/08/16 06:37:31;;;;;;;27.58;18.80;;;20.70;81.30;;;;;;6156772;23;20060;-85
2022/08/16 06:39:57;;;;;;;27.63;19.05;;;20.80;81.20;;;;;;6159045;23;20005;-84
2022/08/16 06:42:23;;;;;;;24.98;17.13;;;20.80;81.10;;;;;;6158699;23;20005;-84
2022/08/16 06:44:49;;;;;;;26.88;17.90;;;20.80;80.90;;;;;;6158420;23;20009;-85
2022/08/16 06:47:15;;;;;;;29.08;19.17;;;20.80;81.10;;;;;;6157504;23;20037;-87
2022/08/16 06:49:41;;;;;;;28.25;19.15;;;20.80;81.30;;;;;;6157222;23;20006;-86
2022/08/16 06:52:07;;;;;;;28.63;18.77;;;20.80;81.30;;;;;;6158850;23;20033;-85
2022/08/16 06:54:34;;;;;;;27.20;17.00;;;20.80;81.10;;;;;;6157335;23;20001;-86
2022/08/16 06:57:00;;;;;;;30.58;17.17;;;20.80;81.30;;;;;;6153611;23;20032;-87
2022/08/16 06:59:25;;;;;;;27.52;17.05;;;20.80;81.60;;;;;;6158553;23;20012;-86
2022/08/16 07:01:51;;;;;;;24.13;15.40;;;20.80;81.80;;;;;;6155479;23;20037;-87
2022/08/16 07:04:17;;;;;;;29.58;16.35;;;20.80;81.80;;;;;;6157736;23;20005;-88
2022/08/16 07:06:43;;;;;;;25.60;15.68;;;20.80;82.00;;;;;;6158478;23;20013;-87
2022/08/16 07:09:11;;;;;;;24.08;15.13;;;20.80;82.10;;;;;;6158006;23;20009;-87
2022/08/16 07:11:36;;;;;;;26.88;14.90;;;20.90;81.80;;;;;;6157942;23;20040;-86
2022/08/16 07:14:02;;;;;;;23.13;14.20;;;20.90;81.90;;;;;;6155733;23;20393;-87
2022/08/16 07:16:28;;;;;;;23.77;14.75;;;20.90;81.90;;;;;;6157958;23;20001;-87
2022/08/16 07:18:56;;;;;;;23.15;13.90;;;20.90;81.80;;;;;;6157163;23;20969;-87
2022/08/16 07:21:21;;;;;;;24.42;14.23;;;21.00;81.60;;;;;;6157107;23;20013;-86
2022/08/16 07:23:47;;;;;;;26.88;14.18;;;21.00;81.80;;;;;;6158410;23;20005;-86
2022/08/16 07:26:18;;;;;;;25.60;14.35;;;21.10;81.90;;;;;;6158270;23;20006;-85
2022/08/16 07:28:44;;;;;;;21.15;13.82;;;21.10;81.50;;;;;;6158115;23;20016;-88
2022/08/16 07:31:10;;;;;;;21.90;13.35;;;21.00;81.50;;;;;;6157975;23;20017;-88
2022/08/16 07:33:36;;;;;;;24.65;14.00;;;21.00;82.10;;;;;;6157048;23;20008;-88
2022/08/16 07:36:03;;;;;;;19.45;13.50;;;21.10;81.90;;;;;;6157676;23;20002;-87
2022/08/16 07:38:29;;;;;;;19.95;14.35;;;21.10;81.90;;;;;;6156762;23;20005;-87
2022/08/16 07:40:55;;;;;;;23.33;12.68;;;21.10;81.60;;;;;;6158021;23;20001;-86
2022/08/16 07:43:23;;;;;;;19.00;12.73;;;21.10;82.00;;;;;;6158131;23;20025;-87
2022/08/16 07:45:49;;;;;;;20.77;12.43;;;21.00;81.50;;;;;;6154900;23;20001;-86
2022/08/16 07:48:15;;;;;;;19.73;12.65;;;20.90;82.20;;;;;;6156148;23;20453;-87
2022/08/16 07:50:41;;;;;;;24.45;13.18;;;20.90;82.20;;;;;;6156522;23;20009;-85
2022/08/16 07:53:07;;;;;;;18.50;11.38;;;21.00;82.10;;;;;;6157671;23;20004;-88
2022/08/16 07:55:33;;;;;;;22.00;12.25;;;21.00;81.70;;;;;;6158244;23;20017;-86
2022/08/16 07:57:59;;;;;;;21.27;11.93;;;21.10;81.70;;;;;;6156629;23;20076;-87
2022/08/16 08:00:24;;;;;;;17.10;12.38;;;21.20;81.90;;;;;;6156292;23;20009;-88
2022/08/16 08:02:50;;;;;;;18.83;11.30;;;21.30;81.40;;;;;;6158464;23;20088;-85
2022/08/16 08:05:16;;;;;;;17.67;13.00;;;21.20;81.40;;;;;;6157236;23;20005;-84
2022/08/16 08:07:41;;;;;;;18.30;11.85;;;21.30;81.40;;;;;;6156603;23;20123;-86
2022/08/16 08:10:08;;;;;;;19.33;12.75;;;21.20;81.10;;;;;;6157894;23;20002;-87
2022/08/16 08:12:34;;;;;;;15.73;12.23;;;21.20;81.30;;;;;;6156482;23;20002;-86
2022/08/16 08:15:00;;;;;;;21.50;12.50;;;21.10;81.50;;;;;;6157490;23;20110;-87
2022/08/16 08:17:28;;;;;;;20.13;13.13;;;21.10;81.50;;;;;;6156702;23;20005;-85
2022/08/16 08:19:54;;;;;;;20.73;12.65;;;21.20;81.20;;;;;;6156924;23;20100;-86
2022/08/16 08:22:21;;;;;;;20.50;12.15;;;21.30;80.80;;;;;;6156410;23;20005;-86
2022/08/16 08:24:47;;;;;;;21.40;12.05;;;21.20;80.80;;;;;;6156042;23;20056;-86
2022/08/16 08:27:13;;;;;;;16.67;11.88;;;21.30;81.10;;;;;;6157433;23;20029;-87
2022/08/16 08:29:40;;;;;;;18.98;12.38;;;21.40;80.90;;;;;;6157512;23;20037;-86
2022/08/16 08:32:07;;;;;;;19.17;12.85;;;21.60;80.50;;;;;;6158032;23;20002;-84
2022/08/16 08:34:33;;;;;;;19.98;11.85;;;21.50;80.40;;;;;;6155962;23;20025;-88
2022/08/16 08:36:58;;;;;;;16.88;11.40;;;21.60;80.40;;;;;;6158078;23;20083;-85
2022/08/16 08:39:24;;;;;;;14.75;9.73;;;21.60;80.10;;;;;;6156371;23;20063;-87
2022/08/16 08:41:51;;;;;;;9.38;7.70;;;21.50;79.50;;;;;;6158559;23;20009;-88
2022/08/16 08:44:17;;;;;;;9.45;6.68;;;21.50;79.60;;;;;;6158337;23;20001;-87
2022/08/16 08:46:43;;;;;;;8.48;6.05;;;21.40;78.80;;;;;;6158324;23;20005;-85
2022/08/16 08:49:09;;;;;;;8.32;5.97;;;21.60;79.40;;;;;;6154610;23;20084;-86
2022/08/16 08:51:37;;;;;;;9.45;6.15;;;21.40;78.90;;;;;;6154885;23;20005;-86
2022/08/16 08:54:07;;;;;;;9.77;6.18;;;21.50;79.80;;;;;;6155935;23;20837;-89
2022/08/16 08:56:36;;;;;;;9.88;6.20;;;21.60;79.30;;;;;;6156194;23;20457;-87
2022/08/16 08:59:03;;;;;;;8.60;6.28;;;21.80;79.20;;;;;;6154698;23;20438;-86
2022/08/16 09:01:31;;;;;;;7.63;5.72;;;22.10;78.80;;;;;;6154975;23;20006;-86
2022/08/16 09:03:57;;;;;;;8.93;6.55;;;22.30;78.80;;;;;;6154646;23;20118;-86
2022/08/16 09:06:23;;;;;;;10.20;6.38;;;22.40;77.60;;;;;;6154840;23;20009;-88
2022/08/16 09:08:48;;;;;;;10.70;6.18;;;22.60;77.10;;;;;;6154165;23;20034;-85
2022/08/16 09:11:14;;;;;;;9.10;6.28;;;22.60;76.60;;;;;;6154776;23;20010;-87
2022/08/16 09:13:40;;;;;;;6.63;4.57;;;22.70;76.70;;;;;;6155091;23;20001;-88
2022/08/16 09:16:06;;;;;;;5.68;3.97;;;22.90;74.90;;;;;;6154770;23;20441;-88
2022/08/16 09:18:32;;;;;;;7.93;4.00;;;23.00;73.50;;;;;;6149725;23;19998;-88
2022/08/16 09:20:58;;;;;;;5.65;3.83;;;23.30;71.80;;;;;;6156492;23;20011;-87
2022/08/16 09:23:24;;;;;;;5.82;3.25;;;23.90;71.10;;;;;;6158693;23;20036;-88
2022/08/16 09:25:50;;;;;;;4.45;3.08;;;24.10;69.60;;;;;;6151673;23;20128;-87
2022/08/16 09:28:16;;;;;;;4.07;2.25;;;25.00;67.20;;;;;;6156439;23;20008;-80
2022/08/16 09:30:45;;;;;;;3.50;2.85;;;26.10;63.10;;;;;;6154443;23;20015;-85
2022/08/16 09:33:17;;;;;;;3.85;1.80;;;26.70;59.40;;;;;;6156435;23;20021;-85
2022/08/16 09:35:44;;;;;;;3.75;1.60;;;27.40;58.80;;;;;;6157705;23;20068;-81
2022/08/16 09:38:12;;;;;;;2.60;1.70;;;26.60;58.20;;;;;;6156107;23;20025;-82
2022/08/16 09:40:41;;;;;;;2.05;1.48;;;26.00;58.70;;;;;;6156260;23;20089;-83
2022/08/16 09:43:09;;;;;;;3.50;1.70;;;25.80;59.40;;;;;;6156361;23;20009;-83
2022/08/16 09:45:37;;;;;;;2.13;1.42;;;25.70;59.50;;;;;;6156631;23;20017;-82
2022/08/16 09:48:06;;;;;;;1.90;1.30;;;26.00;59.60;;;;;;6155947;23;20089;-80
2022/08/16 09:50:34;;;;;;;1.70;1.20;;;26.80;56.70;;;;;;6157770;23;20006;-82
2022/08/16 09:53:03;;;;;;;2.03;1.40;;;28.30;54.30;;;;;;6156500;23;20041;-82
2022/08/16 09:55:28;;;;;;;1.80;1.20;;;29.30;49.70;;;;;;6156151;23;20005;-78
2022/08/16 09:57:54;;;;;;;1.88;1.20;;;30.50;48.50;;;;;;6156078;23;20002;-77
2022/08/16 10:00:20;;;;;;;5.10;1.20;;;31.10;48.90;;;;;;6154077;23;20354;-77
2022/08/16 10:02:46;;;;;;;3.65;1.10;;;31.80;45.80;;;;;;6153890;23;20016;-82
2022/08/16 10:05:20;;;;;;;1.73;1.00;;;31.70;44.60;;;;;;6156028;23;20005;-82
2022/08/16 10:07:51;;;;;;;3.15;1.40;;;32.10;44.70;;;;;;6155599;23;20041;-82
2022/08/16 10:10:19;;;;;;;3.05;1.23;;;32.30;43.80;;;;;;6157402;23;20006;-84
2022/08/16 10:15:30;;;;;;;1.40;0.82;;;32.10;43.00;;;;;;6159454;23;20017;-78
2022/08/16 10:17:57;;;;;;;3.38;1.27;;;31.30;43.70;;;;;;6156831;23;20110;-79
2022/08/16 10:20:24;;;;;;;4.30;1.27;;;30.90;45.10;;;;;;6158503;23;20125;-78
2022/08/16 10:22:51;;;;;;;2.65;1.20;;;30.80;45.30;;;;;;6157988;23;20012;-78
2022/08/16 10:25:17;;;;;;;2.28;1.02;;;31.30;44.60;;;;;;6157822;23;20037;-78
2022/08/16 10:27:45;;;;;;;1.95;1.13;;;30.20;46.00;;;;;;6158076;23;20346;-84
2022/08/16 10:30:12;;;;;;;2.53;1.00;;;30.70;45.40;;;;;;6159153;23;20064;-82
2022/08/16 10:32:37;;;;;;;1.70;1.10;;;30.10;44.30;;;;;;6159337;23;20068;-79
2022/08/16 10:35:04;;;;;;;1.55;0.90;;;29.40;47.40;;;;;;6157895;23;20006;-80
2022/08/16 10:37:30;;;;;;;1.50;0.90;;;29.20;48.40;;;;;;6158239;23;20016;-80
2022/08/16 10:39:56;;;;;;;2.30;1.13;;;28.50;48.10;;;;;;6155147;23;20036;-80
2022/08/16 10:42:21;;;;;;;4.47;1.00;;;28.20;49.00;;;;;;6157158;23;19998;-79
2022/08/16 10:44:48;;;;;;;1.88;0.90;;;27.60;49.40;;;;;;6157715;23;20006;-79
2022/08/16 10:47:14;;;;;;;2.83;1.35;;;27.20;51.20;;;;;;6157336;23;20009;-80
2022/08/16 10:49:40;;;;;;;3.17;1.08;;;26.70;50.60;;;;;;6157369;23;20001;-80
2022/08/16 10:52:06;;;;;;;2.60;1.20;;;26.70;52.60;;;;;;6156959;23;20029;-79
2022/08/16 10:54:32;;;;;;;4.03;1.35;;;26.70;53.20;;;;;;6157546;23;20457;-79
2022/08/16 10:56:59;;;;;;;2.00;1.05;;;26.50;53.40;;;;;;6155681;23;20005;-80
2022/08/16 10:59:26;;;;;;;2.72;1.27;;;26.40;52.50;;;;;;6157257;23;20096;-78
2022/08/16 11:01:52;;;;;;;2.97;1.30;;;26.40;53.40;;;;;;6159694;23;20001;-79
2022/08/16 11:04:17;;;;;;;2.20;1.50;;;26.70;53.40;;;;;;6157968;23;20010;-84
2022/08/16 11:06:43;;;;;;;4.05;1.40;;;26.30;51.40;;;;;;6158773;23;20041;-80
2022/08/16 11:09:09;;;;;;;3.10;1.15;;;26.00;52.60;;;;;;6157982;23;20080;-81
2022/08/16 11:11:35;;;;;;;3.55;1.70;;;26.10;52.60;;;;;;6159197;23;20160;-79
2022/08/16 11:14:00;;;;;;;2.95;1.05;;;26.20;52.90;;;;;;6159343;23;19997;-79
2022/08/16 11:16:27;;;;;;;3.00;1.15;;;26.40;52.80;;;;;;6158781;23;20001;-79
2022/08/16 11:18:56;;;;;;;2.97;1.15;;;26.40;52.40;;;;;;6159792;23;20080;-80
2022/08/16 11:21:24;;;;;;;5.75;1.45;;;26.20;52.40;;;;;;6159368;23;20012;-79
2022/08/16 11:23:53;;;;;;;1.73;1.10;;;26.10;53.00;;;;;;6159404;23;20068;-79
2022/08/16 11:26:19;;;;;;;2.58;1.20;;;25.90;53.80;;;;;;6157367;23;20006;-79
2022/08/16 11:28:45;;;;;;;4.20;1.70;;;26.10;53.40;;;;;;6158143;23;20480;-80
2022/08/16 11:31:11;;;;;;;2.10;1.20;;;26.20;51.50;;;;;;6158800;23;20450;-80
2022/08/16 11:33:37;;;;;;;1.85;1.30;;;26.30;52.90;;;;;;6158964;23;20024;-80
2022/08/16 11:36:03;;;;;;;2.25;1.20;;;26.30;52.30;;;;;;6159174;23;20505;-79
2022/08/16 11:38:29;;;;;;;2.08;1.05;;;26.40;52.60;;;;;;6158965;23;20005;-78
2022/08/16 11:40:57;;;;;;;1.50;1.25;;;26.30;53.20;;;;;;6158806;23;20063;-79
2022/08/16 11:43:33;;;;;;;4.05;1.25;;;26.30;51.30;;;;;;6159081;23;20026;-78
2022/08/16 11:46:02;;;;;;;2.08;1.25;;;26.20;50.80;;;;;;6158248;23;20004;-78
2022/08/16 11:48:29;;;;;;;2.43;1.23;;;26.40;52.60;;;;;;6156511;23;20081;-78
2022/08/16 11:50:56;;;;;;;3.10;0.90;;;26.40;51.10;;;;;;6156312;23;20495;-77
2022/08/16 11:53:23;;;;;;;2.08;1.10;;;26.30;52.60;;;;;;6157195;23;20028;-78
2022/08/16 11:55:49;;;;;;;4.18;1.20;;;26.40;51.40;;;;;;6156767;23;20356;-78
2022/08/16 11:58:15;;;;;;;1.88;1.20;;;26.50;51.60;;;;;;6157338;23;19998;-78
2022/08/16 12:00:44;;;;;;;3.35;1.17;;;26.50;50.10;;;;;;6155435;23;20114;-78
2022/08/16 12:03:09;;;;;;;2.22;1.30;;;26.60;50.70;;;;;;6157427;23;20426;-79
2022/08/16 12:05:37;;;;;;;2.22;1.30;;;26.40;49.50;;;;;;6158859;23;20009;-79
2022/08/16 12:08:07;;;;;;;4.25;1.30;;;26.40;50.20;;;;;;6159137;23;20024;-79
2022/08/16 12:10:34;;;;;;;3.63;1.70;;;26.00;50.60;;;;;;6158103;23;20009;-80
2022/08/16 12:13:00;;;;;;;2.28;1.30;;;25.90;51.10;;;;;;6158364;23;20010;-79
2022/08/16 12:15:26;;;;;;;2.33;1.30;;;25.80;51.70;;;;;;6158294;23;20084;-79
2022/08/16 12:17:55;;;;;;;2.70;1.45;;;26.00;51.30;;;;;;6151534;23;20012;-79
2022/08/16 12:20:25;;;;;;;3.45;1.27;;;26.00;49.90;;;;;;6155810;23;20017;-76
2022/08/16 12:22:54;;;;;;;3.50;1.45;;;26.10;51.00;;;;;;6156161;23;20157;-80
2022/08/16 12:25:22;;;;;;;1.98;1.38;;;26.30;50.50;;;;;;6154680;23;20006;-76
2022/08/16 12:27:48;;;;;;;2.63;1.35;;;26.70;49.60;;;;;;6157082;23;20110;-84
2022/08/16 12:30:18;;;;;;;4.13;2.10;;;26.90;47.50;;;;;;6158549;23;20017;-80
2022/08/16 12:32:44;;;;;;;4.38;1.45;;;27.10;47.10;;;;;;6157214;23;20002;-82
2022/08/16 12:35:14;;;;;;;2.22;1.10;;;27.10;46.70;;;;;;6156584;23;20492;-80